Marysvale, Utah
Current Conditions -  °F | °C
As of 6:52 PM on Friday 19 Dec 2014 (Local Time) from KMLF Reporting Station
Overcast Overcast  
Wind Chill: 28°   Ceiling: 12000
Heat Index: 37°   Visibility: 10mi
Dew Point: 27°   Wind: 16mph
Humidity: 67%   Direction: 200°SSW
Pressure: 30.13"   Gusts: NA
Location:  38.45°N, 112.23°W
Report Text: KMLF 200152Z AUTO 20014KT 10SM OVC120 03/M03 A3013 RMK AO2 SLP215 T00281028 TSNO
Loading
Personal Weather Stations






























Interactive Weather Map New forecast layout! Learn more

10-Day Weather Forecast

Advertisements
Track Severe Weather on mobile